createdAt,value
2018-03-26T00:01:30.392Z,3.80
2018-03-26T00:03:58.013Z,3.90
2018-03-26T00:06:25.627Z,3.90
2018-03-26T00:08:53.284Z,3.90
2018-03-26T00:11:20.897Z,3.90
2018-03-26T00:13:48.515Z,3.90
2018-03-26T00:16:16.919Z,3.90
2018-03-26T00:18:44.686Z,3.90
2018-03-26T00:21:12.459Z,4.00
2018-03-26T00:23:40.081Z,3.90
2018-03-26T00:26:08.445Z,3.90
2018-03-26T00:28:36.118Z,3.90
2018-03-26T00:31:03.721Z,3.80
2018-03-26T00:33:31.367Z,3.80
2018-03-26T00:35:59.746Z,3.80
2018-03-26T00:38:28.489Z,3.90
2018-03-26T00:40:56.086Z,3.80
2018-03-26T00:43:23.898Z,3.90
2018-03-26T00:45:51.540Z,3.90
2018-03-26T00:50:53.999Z,3.80
2018-03-26T00:53:33.472Z,3.80
2018-03-26T00:56:01.864Z,3.70
2018-03-26T00:58:30.241Z,3.70
2018-03-26T01:00:58.606Z,3.60
2018-03-26T01:03:26.240Z,3.60
2018-03-26T01:05:53.852Z,3.70
2018-03-26T01:08:22.584Z,3.70
2018-03-26T01:10:50.180Z,3.70
2018-03-26T01:13:18.548Z,3.60
2018-03-26T01:15:46.186Z,3.60
2018-03-26T01:18:13.974Z,3.60
2018-03-26T01:20:41.540Z,3.60
2018-03-26T01:23:12.049Z,3.50
2018-03-26T01:25:39.746Z,3.50
2018-03-26T01:28:07.338Z,3.50
2018-03-26T01:30:34.989Z,3.50
2018-03-26T01:33:02.619Z,3.40
2018-03-26T01:35:30.287Z,3.40
2018-03-26T01:37:57.886Z,3.50
2018-03-26T01:40:25.480Z,3.50
2018-03-26T01:42:53.856Z,3.50
2018-03-26T01:45:21.500Z,3.40
2018-03-26T01:47:49.086Z,3.40
2018-03-26T01:50:16.746Z,3.40
2018-03-26T01:52:45.832Z,3.10
2018-03-26T01:55:13.588Z,3.10
2018-03-26T01:57:41.227Z,3.10
2018-03-26T02:00:08.832Z,3.10
2018-03-26T02:02:36.417Z,3.20
2018-03-26T02:05:04.804Z,3.30
2018-03-26T02:07:32.427Z,3.20
2018-03-26T02:10:00.030Z,3.30
2018-03-26T02:12:27.845Z,3.30
2018-03-26T02:14:55.421Z,3.40
2018-03-26T02:17:23.381Z,3.30
2018-03-26T02:19:50.986Z,3.30
2018-03-26T02:22:18.693Z,3.30
2018-03-26T02:24:47.061Z,3.30
2018-03-26T02:27:14.666Z,3.20
2018-03-26T02:29:42.291Z,3.30
2018-03-26T02:32:09.989Z,3.40
2018-03-26T02:34:37.894Z,3.40
2018-03-26T02:37:05.558Z,3.40
2018-03-26T02:39:33.219Z,3.40
2018-03-26T02:42:00.834Z,3.40
2018-03-26T02:44:29.202Z,3.40
2018-03-26T02:46:57.588Z,3.40
2018-03-26T02:49:25.193Z,3.40
2018-03-26T02:51:52.804Z,3.40
2018-03-26T02:54:20.388Z,3.50
2018-03-26T02:56:48.108Z,3.60
2018-03-26T02:59:15.745Z,3.50
2018-03-26T03:01:44.103Z,3.50
2018-03-26T03:04:11.761Z,3.50
2018-03-26T03:06:39.362Z,3.50
2018-03-26T03:09:07.772Z,3.50
2018-03-26T03:11:35.482Z,3.50
2018-03-26T03:14:03.817Z,3.50
2018-03-26T03:16:31.446Z,3.50
2018-03-26T03:18:59.845Z,3.50
2018-03-26T03:21:28.225Z,3.40
2018-03-26T03:23:56.581Z,3.40
2018-03-26T03:26:24.623Z,3.30
2018-03-26T03:28:52.202Z,3.20
2018-03-26T03:31:19.953Z,3.20
2018-03-26T03:33:47.809Z,3.20
2018-03-26T03:36:15.401Z,3.20
2018-03-26T03:38:43.033Z,3.30
2018-03-26T03:41:11.381Z,3.30
2018-03-26T03:43:39.319Z,3.30
2018-03-26T03:46:06.913Z,3.40
2018-03-26T03:48:34.627Z,3.40
2018-03-26T03:51:02.244Z,3.40
2018-03-26T03:53:29.830Z,3.40
2018-03-26T03:55:58.214Z,3.30
2018-03-26T03:58:26.587Z,3.30
2018-03-26T04:00:54.486Z,3.20
2018-03-26T04:03:22.080Z,3.20
2018-03-26T04:05:49.671Z,3.20
2018-03-26T04:08:17.417Z,3.20
2018-03-26T04:10:45.016Z,3.20
2018-03-26T04:13:14.129Z,3.20
2018-03-26T04:15:41.730Z,3.20
2018-03-26T04:18:09.351Z,3.20
2018-03-26T04:20:37.051Z,3.20
2018-03-26T04:23:04.645Z,3.20
2018-03-26T04:25:32.265Z,3.30
2018-03-26T04:28:00.651Z,3.30
2018-03-26T04:30:29.035Z,3.30
2018-03-26T04:32:57.417Z,3.30
2018-03-26T04:35:25.803Z,3.40
2018-03-26T04:37:54.257Z,3.40
2018-03-26T04:40:21.861Z,3.40
2018-03-26T04:42:49.500Z,3.40
2018-03-26T04:45:17.106Z,3.50
2018-03-26T04:47:44.865Z,3.50
2018-03-26T04:50:12.654Z,3.60
2018-03-26T04:52:40.240Z,3.60
2018-03-26T04:55:08.112Z,3.60
2018-03-26T04:57:35.928Z,3.50
2018-03-26T05:00:04.296Z,3.60
2018-03-26T05:02:32.020Z,3.60
2018-03-26T05:04:59.610Z,3.60
2018-03-26T05:07:27.227Z,3.60
2018-03-26T05:09:54.813Z,3.50
2018-03-26T05:12:22.466Z,3.50
2018-03-26T05:14:50.084Z,3.50
2018-03-26T05:17:17.685Z,3.50
2018-03-26T05:19:45.289Z,3.50
2018-03-26T05:22:12.885Z,3.50
2018-03-26T05:24:40.525Z,3.50
2018-03-26T05:27:08.247Z,3.50
2018-03-26T05:29:35.902Z,3.50
2018-03-26T05:32:04.293Z,3.60
2018-03-26T05:34:32.675Z,3.60
2018-03-26T05:37:01.053Z,3.70
2018-03-26T05:39:29.423Z,3.70
2018-03-26T05:41:57.058Z,3.70
2018-03-26T05:44:24.668Z,3.70
2018-03-26T05:46:53.141Z,3.80
2018-03-26T05:49:20.746Z,3.80
2018-03-26T05:51:48.356Z,3.80
2018-03-26T05:54:16.312Z,3.90
2018-03-26T05:56:43.927Z,3.90
2018-03-26T05:59:11.529Z,3.90
2018-03-26T06:01:39.154Z,4.00
2018-03-26T06:04:07.507Z,4.00
2018-03-26T06:06:35.146Z,4.00
2018-03-26T06:09:02.746Z,4.00
2018-03-26T06:11:31.899Z,4.00
2018-03-26T06:13:59.506Z,4.00
2018-03-26T06:16:27.114Z,4.00
2018-03-26T06:18:55.486Z,4.00
2018-03-26T06:21:23.855Z,4.00
2018-03-26T06:23:52.237Z,4.00
2018-03-26T06:26:19.830Z,4.00
2018-03-26T06:28:47.571Z,4.00
2018-03-26T06:31:15.971Z,4.00
2018-03-26T06:33:44.432Z,4.00
2018-03-26T06:36:31.730Z,4.10
2018-03-26T06:39:00.190Z,4.10
2018-03-26T06:41:27.788Z,4.10
2018-03-26T06:43:55.409Z,4.10
2018-03-26T06:46:22.999Z,4.10
2018-03-26T06:48:50.958Z,4.10
2018-03-26T06:51:18.822Z,4.20
2018-03-26T06:53:46.451Z,4.30
2018-03-26T06:56:14.848Z,4.30
2018-03-26T06:58:43.411Z,4.40
2018-03-26T07:01:11.060Z,4.30
2018-03-26T07:03:38.658Z,4.40
2018-03-26T07:06:07.033Z,4.60
2018-03-26T07:08:34.636Z,4.60
2018-03-26T07:11:02.266Z,4.60
2018-03-26T07:13:29.896Z,4.70
2018-03-26T07:15:57.490Z,4.70
2018-03-26T07:18:25.423Z,4.80
2018-03-26T07:20:54.776Z,4.90
2018-03-26T07:23:22.379Z,5.00
2018-03-26T07:25:50.030Z,5.20
2018-03-26T07:28:17.616Z,5.20
2018-03-26T07:30:45.247Z,5.30
2018-03-26T07:33:13.732Z,5.40
2018-03-26T07:35:42.353Z,5.40
2018-03-26T07:38:09.952Z,5.40
2018-03-26T07:40:37.575Z,5.40
2018-03-26T07:43:05.171Z,5.40
2018-03-26T07:45:32.788Z,5.40
2018-03-26T07:48:01.149Z,5.50
2018-03-26T07:50:28.770Z,5.50
2018-03-26T07:52:56.353Z,5.60
2018-03-26T07:55:23.943Z,5.60
2018-03-26T07:57:51.693Z,5.70
2018-03-26T08:00:19.305Z,5.70
2018-03-26T08:02:47.672Z,5.70
2018-03-26T08:05:15.272Z,5.70
2018-03-26T08:07:43.207Z,5.70
2018-03-26T08:10:10.800Z,5.80
2018-03-26T08:12:38.392Z,5.80
2018-03-26T08:15:06.005Z,5.80
2018-03-26T08:17:33.657Z,5.80
2018-03-26T08:20:02.794Z,5.80
2018-03-26T08:22:30.423Z,5.80
2018-03-26T08:24:58.020Z,5.90
2018-03-26T08:27:26.428Z,5.90
2018-03-26T08:29:54.120Z,5.90
2018-03-26T08:32:21.818Z,6.00
2018-03-26T08:34:49.423Z,6.10
2018-03-26T08:37:17.054Z,6.10
2018-03-26T08:39:46.091Z,6.20
2018-03-26T08:42:13.700Z,6.10
2018-03-26T08:44:41.315Z,6.20
2018-03-26T08:47:08.945Z,6.30
2018-03-26T08:49:36.573Z,6.40
2018-03-26T08:52:04.151Z,6.50
2018-03-26T08:54:31.891Z,6.70
2018-03-26T08:56:59.600Z,6.80
2018-03-26T08:59:27.196Z,7.00
2018-03-26T09:01:55.600Z,7.20
2018-03-26T09:04:23.216Z,7.20
2018-03-26T09:06:51.595Z,7.30
2018-03-26T09:09:19.203Z,7.30
2018-03-26T09:11:47.921Z,7.40
2018-03-26T09:14:15.511Z,7.40
2018-03-26T09:16:43.096Z,7.40
2018-03-26T09:19:10.720Z,7.40
2018-03-26T09:21:38.296Z,7.40
2018-03-26T09:24:05.907Z,7.40
2018-03-26T09:26:34.290Z,7.40
2018-03-26T09:29:02.712Z,7.40
2018-03-26T09:31:30.308Z,7.40
2018-03-26T09:33:57.910Z,7.50
2018-03-26T09:36:26.302Z,7.50
2018-03-26T09:38:53.926Z,7.50
2018-03-26T09:41:21.540Z,7.50
2018-03-26T09:43:49.142Z,7.50
2018-03-26T09:46:16.753Z,7.50
2018-03-26T09:48:45.117Z,7.40
2018-03-26T09:51:13.606Z,7.50
2018-03-26T09:53:41.225Z,7.50
2018-03-26T09:56:08.843Z,7.50
2018-03-26T09:58:37.264Z,7.50
2018-03-26T10:01:04.909Z,7.50
2018-03-26T10:03:33.351Z,7.50
2018-03-26T10:06:00.942Z,7.50
2018-03-26T10:08:28.613Z,7.50
2018-03-26T10:10:56.215Z,7.60
2018-03-26T10:13:23.789Z,7.60
2018-03-26T10:15:51.518Z,7.60
2018-03-26T10:18:19.885Z,7.70
2018-03-26T10:20:47.511Z,7.70
2018-03-26T10:23:15.108Z,7.80
2018-03-26T10:25:44.216Z,7.80
2018-03-26T10:28:11.931Z,7.90
2018-03-26T10:30:39.566Z,7.90
2018-03-26T10:33:07.936Z,7.90
2018-03-26T10:35:35.546Z,7.90
2018-03-26T10:38:03.180Z,8.00
2018-03-26T10:40:31.571Z,8.10
2018-03-26T10:42:59.954Z,8.20
2018-03-26T10:45:28.326Z,8.30
2018-03-26T10:47:56.697Z,8.30
2018-03-26T10:50:24.381Z,8.30
2018-03-26T10:52:52.757Z,8.30
2018-03-26T10:55:21.106Z,8.30
2018-03-26T10:57:48.701Z,8.30
2018-03-26T11:00:16.321Z,8.30
2018-03-26T11:02:43.938Z,8.30
2018-03-26T11:05:12.322Z,8.50
2018-03-26T11:07:40.694Z,8.70
2018-03-26T11:10:08.355Z,8.60
2018-03-26T11:12:35.940Z,8.60
2018-03-26T11:15:04.335Z,8.40
2018-03-26T11:17:32.783Z,8.40
2018-03-26T11:20:00.412Z,8.40
2018-03-26T11:22:28.052Z,8.40
2018-03-26T11:24:56.424Z,8.50
2018-03-26T11:27:24.862Z,8.60
2018-03-26T11:29:52.465Z,8.60
2018-03-26T11:32:20.074Z,8.50
2018-03-26T11:34:47.685Z,8.50
2018-03-26T11:37:15.312Z,8.50
2018-03-26T11:39:42.931Z,8.60
2018-03-26T11:42:11.326Z,8.70
2018-03-26T11:44:39.748Z,8.80
2018-03-26T11:47:07.356Z,8.80
2018-03-26T11:49:35.035Z,8.80
2018-03-26T11:52:02.748Z,8.80
2018-03-26T11:54:30.374Z,8.80
2018-03-26T11:56:58.739Z,8.80
2018-03-26T11:59:26.390Z,8.80
2018-03-26T12:01:55.757Z,8.90
2018-03-26T12:04:23.381Z,8.90
2018-03-26T12:06:51.869Z,9.00
2018-03-26T12:09:19.492Z,9.00
2018-03-26T12:11:47.083Z,9.10
2018-03-26T12:14:14.683Z,9.20
2018-03-26T12:16:43.045Z,9.70
2018-03-26T12:19:10.672Z,9.70
2018-03-26T12:21:38.359Z,9.80
2018-03-26T12:24:18.334Z,9.90
2018-03-26T12:26:46.700Z,9.80
2018-03-26T12:29:26.601Z,9.80
2018-03-26T12:31:54.216Z,9.80
2018-03-26T12:34:34.071Z,9.50
2018-03-26T12:37:02.494Z,9.40
2018-03-26T12:39:30.100Z,9.30
2018-03-26T12:41:57.716Z,9.30
2018-03-26T12:47:32.416Z,8.90
2018-03-26T12:50:00.786Z,8.90
2018-03-26T12:52:40.304Z,8.80
2018-03-26T12:55:07.897Z,8.80
2018-03-26T12:57:47.543Z,8.80
2018-03-26T13:00:15.147Z,8.70
2018-03-26T13:02:42.793Z,8.70
2018-03-26T13:05:11.165Z,8.60
2018-03-26T13:07:39.585Z,8.40
2018-03-26T13:10:07.177Z,8.40
2018-03-26T13:12:34.764Z,8.40
2018-03-26T13:15:03.193Z,8.40
2018-03-26T13:17:30.792Z,8.40
2018-03-26T13:19:58.434Z,8.40
2018-03-26T13:22:26.031Z,8.40
2018-03-26T13:24:53.893Z,8.30
2018-03-26T13:27:21.484Z,8.20
2018-03-26T13:29:49.077Z,8.20
2018-03-26T13:32:16.886Z,8.10
2018-03-26T13:34:44.497Z,8.10
2018-03-26T13:37:12.887Z,7.90
2018-03-26T13:39:41.263Z,7.80
2018-03-26T13:42:09.183Z,7.80
2018-03-26T13:44:36.790Z,7.80
2018-03-26T13:47:04.353Z,7.70
2018-03-26T13:49:31.994Z,7.80
2018-03-26T13:51:59.594Z,7.80
2018-03-26T13:54:27.198Z,7.70
2018-03-26T13:56:54.813Z,7.70
2018-03-26T13:59:22.438Z,7.70
2018-03-26T14:01:50.036Z,7.70
2018-03-26T14:04:19.188Z,7.50
2018-03-26T14:06:46.975Z,7.50
2018-03-26T14:09:26.477Z,7.50
2018-03-26T14:12:06.645Z,7.50
2018-03-26T14:14:45.941Z,7.40
2018-03-26T14:17:25.416Z,7.40
2018-03-26T14:19:53.107Z,7.30
2018-03-26T14:22:20.722Z,7.30
2018-03-26T14:24:48.335Z,7.30
2018-03-26T14:27:15.952Z,7.20
2018-03-26T14:29:43.547Z,7.10
2018-03-26T14:32:11.251Z,7.10
2018-03-26T14:34:38.850Z,7.00
2018-03-26T14:37:06.459Z,7.10
2018-03-26T14:39:34.141Z,7.20
2018-03-26T14:42:01.754Z,7.20
2018-03-26T14:44:30.133Z,7.20
2018-03-26T14:46:57.734Z,7.20
2018-03-26T14:49:25.381Z,7.20
2018-03-26T14:51:53.032Z,7.20
2018-03-26T14:54:21.517Z,7.20
2018-03-26T14:56:49.905Z,7.20
2018-03-26T14:59:18.288Z,7.20
2018-03-26T15:01:46.661Z,7.10
2018-03-26T15:04:15.048Z,7.00
2018-03-26T15:06:43.486Z,7.30
2018-03-26T15:09:11.105Z,7.30
2018-03-26T15:11:39.513Z,7.70
2018-03-26T15:14:07.211Z,7.70
2018-03-26T15:16:34.828Z,7.80
2018-03-26T15:19:02.454Z,7.70
2018-03-26T15:21:30.073Z,7.50
2018-03-26T15:23:57.927Z,7.20
2018-03-26T15:26:26.324Z,6.70
2018-03-26T15:28:53.953Z,6.70
2018-03-26T15:31:21.561Z,6.50
2018-03-26T15:33:49.139Z,6.40
2018-03-26T15:36:16.793Z,6.40
2018-03-26T15:38:44.400Z,6.40
2018-03-26T15:41:12.037Z,6.20
2018-03-26T15:43:39.665Z,6.20
2018-03-26T15:46:08.066Z,6.00
2018-03-26T15:48:36.477Z,5.80
2018-03-26T15:51:04.205Z,5.80
2018-03-26T15:53:32.606Z,5.90
2018-03-26T15:56:00.220Z,5.90
2018-03-26T15:58:27.865Z,5.70
2018-03-26T16:00:55.483Z,5.60
2018-03-26T16:03:24.376Z,5.50
2018-03-26T16:05:52.771Z,5.40
2018-03-26T16:08:21.208Z,5.40
2018-03-26T16:10:48.841Z,5.30
2018-03-26T16:13:16.461Z,5.30
2018-03-26T16:15:44.915Z,5.20
2018-03-26T16:18:12.547Z,5.20
2018-03-26T16:20:40.210Z,5.20
2018-03-26T16:23:07.831Z,5.20
2018-03-26T16:25:35.427Z,5.20
2018-03-26T16:28:03.847Z,5.00
2018-03-26T16:30:31.479Z,5.00
2018-03-26T16:32:59.886Z,4.90
2018-03-26T16:35:27.541Z,4.90
2018-03-26T16:37:55.975Z,4.90
2018-03-26T16:40:23.655Z,4.90
2018-03-26T16:42:53.915Z,5.00
2018-03-26T16:45:21.577Z,5.10
2018-03-26T16:47:49.940Z,5.10
2018-03-26T16:50:18.512Z,5.10
2018-03-26T16:52:46.162Z,5.10
2018-03-26T16:55:13.826Z,5.10
2018-03-26T16:57:41.425Z,5.10
2018-03-26T17:00:09.056Z,5.10
2018-03-26T17:02:36.746Z,5.10
2018-03-26T17:05:05.423Z,5.20
2018-03-26T17:07:33.110Z,5.20
2018-03-26T17:10:00.739Z,5.20
2018-03-26T17:12:28.372Z,5.20
2018-03-26T17:14:56.106Z,5.20
2018-03-26T17:17:23.724Z,5.10
2018-03-26T17:19:51.363Z,5.10
2018-03-26T17:22:19.763Z,5.10
2018-03-26T17:24:48.251Z,5.10
2018-03-26T17:27:16.714Z,5.10
2018-03-26T17:29:45.117Z,5.00
2018-03-26T17:32:13.649Z,5.00
2018-03-26T17:34:41.274Z,5.00
2018-03-26T17:37:09.691Z,5.00
2018-03-26T17:39:37.326Z,5.00
2018-03-26T17:42:04.959Z,5.00
2018-03-26T17:44:32.775Z,5.00
2018-03-26T17:47:00.422Z,5.00
2018-03-26T17:49:28.139Z,5.00
2018-03-26T17:51:56.571Z,4.90
2018-03-26T17:54:25.137Z,4.90
2018-03-26T17:56:52.801Z,4.90
2018-03-26T17:59:21.276Z,5.00
2018-03-26T18:01:49.025Z,5.00
2018-03-26T18:04:16.725Z,5.00
2018-03-26T18:06:44.431Z,5.00
2018-03-26T18:09:12.581Z,5.00
2018-03-26T18:11:41.261Z,5.00
2018-03-26T18:14:08.929Z,5.00
2018-03-26T18:16:36.595Z,5.00
2018-03-26T18:19:05.026Z,5.00
2018-03-26T18:21:33.293Z,5.00
2018-03-26T18:24:01.062Z,5.00
2018-03-26T18:26:28.864Z,5.00
2018-03-26T18:28:56.566Z,5.10
2018-03-26T18:31:24.325Z,5.10
2018-03-26T18:33:52.094Z,5.20
2018-03-26T18:36:20.110Z,5.20
2018-03-26T18:38:47.852Z,5.10
2018-03-26T18:41:16.354Z,4.80
2018-03-26T18:43:44.834Z,4.60
2018-03-26T18:46:13.326Z,4.50
2018-03-26T18:48:41.257Z,4.40
2018-03-26T18:51:10.525Z,4.20
2018-03-26T18:53:38.308Z,4.20
2018-03-26T18:56:06.281Z,4.20
2018-03-26T18:58:34.052Z,4.20
2018-03-26T19:01:01.950Z,4.20
2018-03-26T19:03:30.135Z,4.20
2018-03-26T19:05:59.413Z,4.20
2018-03-26T19:08:27.982Z,4.10
2018-03-26T19:10:55.870Z,4.20
2018-03-26T19:13:24.001Z,4.20
2018-03-26T19:15:51.912Z,4.20
2018-03-26T19:18:19.804Z,4.20
2018-03-26T19:20:48.263Z,4.20
2018-03-26T19:23:16.603Z,4.20
2018-03-26T19:25:47.828Z,4.10
2018-03-26T19:28:15.798Z,4.10
2018-03-26T19:30:43.657Z,4.10
2018-03-26T19:33:11.514Z,4.20
2018-03-26T19:35:40.071Z,4.30
2018-03-26T19:38:07.881Z,4.30
2018-03-26T19:40:36.219Z,4.30
2018-03-26T19:43:03.961Z,4.40
2018-03-26T19:45:31.701Z,4.40
2018-03-26T19:47:59.441Z,4.40
2018-03-26T19:50:27.066Z,4.30
2018-03-26T19:52:56.259Z,4.20
2018-03-26T19:55:23.904Z,4.10
2018-03-26T19:57:51.546Z,4.10
2018-03-26T20:00:20.804Z,3.80
2018-03-26T20:02:48.537Z,3.80
2018-03-26T20:05:16.520Z,3.80
2018-03-26T20:07:44.472Z,3.70
2018-03-26T20:10:12.142Z,3.70
2018-03-26T20:12:39.852Z,3.70
2018-03-26T20:15:07.541Z,3.50
2018-03-26T20:17:36.704Z,3.60
2018-03-26T20:20:04.383Z,3.50
2018-03-26T20:22:32.879Z,3.50
2018-03-26T20:25:00.638Z,3.50
2018-03-26T20:27:28.328Z,3.40
2018-03-26T20:29:56.846Z,3.50
2018-03-26T20:32:24.535Z,3.40
2018-03-26T20:34:52.250Z,3.40
2018-03-26T20:37:20.705Z,3.40
2018-03-26T20:39:48.489Z,3.40
2018-03-26T20:42:16.311Z,3.40
2018-03-26T20:44:43.973Z,3.50
2018-03-26T20:47:11.655Z,3.50
2018-03-26T20:49:39.323Z,3.50
2018-03-26T20:52:07.001Z,3.50
2018-03-26T20:54:35.021Z,3.50
2018-03-26T20:57:03.445Z,3.50
2018-03-26T20:59:31.474Z,3.50
2018-03-26T21:01:59.968Z,3.50
2018-03-26T21:04:28.488Z,3.60
2018-03-26T21:06:56.214Z,3.50
2018-03-26T21:09:24.609Z,3.50
2018-03-26T21:11:53.027Z,3.50
2018-03-26T21:14:20.655Z,3.50
2018-03-26T21:16:49.147Z,3.50
2018-03-26T21:19:17.547Z,3.50
2018-03-26T21:21:45.177Z,3.50
2018-03-26T21:24:13.571Z,3.60
2018-03-26T21:26:42.006Z,3.60
2018-03-26T21:29:09.812Z,3.60
2018-03-26T21:31:37.438Z,3.60
2018-03-26T21:34:05.035Z,3.60
2018-03-26T21:36:32.668Z,3.60
2018-03-26T21:39:00.290Z,3.60
2018-03-26T21:41:29.329Z,3.60
2018-03-26T21:43:56.947Z,3.60
2018-03-26T21:46:25.349Z,3.60
2018-03-26T21:48:53.713Z,3.70
2018-03-26T21:51:21.347Z,3.70
2018-03-26T21:53:49.077Z,3.70
2018-03-26T21:56:16.715Z,3.60
2018-03-26T21:58:45.115Z,3.50
2018-03-26T22:01:14.351Z,3.50
2018-03-26T22:03:41.969Z,3.50
2018-03-26T22:06:09.581Z,3.50
2018-03-26T22:08:37.212Z,3.40
2018-03-26T22:11:05.781Z,3.40
2018-03-26T22:13:33.382Z,3.40
2018-03-26T22:16:00.994Z,3.40
2018-03-26T22:18:28.582Z,3.40
2018-03-26T22:20:56.191Z,3.30
2018-03-26T22:23:23.783Z,3.30
2018-03-26T22:25:51.398Z,3.30
2018-03-26T22:28:19.790Z,3.30
2018-03-26T22:30:47.474Z,3.30
2018-03-26T22:33:15.086Z,3.30
2018-03-26T22:35:42.663Z,3.40
2018-03-26T22:38:11.045Z,3.40
2018-03-26T22:40:38.674Z,3.40
2018-03-26T22:43:06.522Z,3.40
2018-03-26T22:45:34.134Z,3.40
2018-03-26T22:48:01.745Z,3.40
2018-03-26T22:50:29.329Z,3.40
2018-03-26T22:52:57.156Z,3.30
2018-03-26T22:55:25.569Z,3.30
2018-03-26T22:57:53.243Z,3.30
2018-03-26T23:00:21.523Z,3.30
2018-03-26T23:02:49.140Z,3.30
2018-03-26T23:05:16.806Z,3.30
2018-03-26T23:07:45.188Z,3.30
2018-03-26T23:10:13.584Z,3.30
2018-03-26T23:12:41.995Z,3.30
2018-03-26T23:15:09.782Z,3.30
2018-03-26T23:17:37.395Z,3.20
2018-03-26T23:20:04.984Z,3.20
2018-03-26T23:22:45.296Z,3.20
2018-03-26T23:25:12.908Z,3.20
2018-03-26T23:27:41.324Z,3.20
2018-03-26T23:30:08.995Z,3.20
2018-03-26T23:32:36.637Z,3.20
2018-03-26T23:35:04.260Z,3.20
2018-03-26T23:37:33.361Z,3.10
2018-03-26T23:40:01.747Z,3.10
2018-03-26T23:42:30.137Z,3.10
2018-03-26T23:44:58.870Z,3.10
2018-03-26T23:47:26.529Z,3.10
2018-03-26T23:49:54.139Z,3.20
2018-03-26T23:52:21.764Z,3.10
2018-03-26T23:54:49.393Z,3.10
2018-03-26T23:57:17.770Z,3.20
2018-03-26T23:59:46.139Z,3.20
